OIFK  Kashan Airport

Add Bookmark

Iran

Status
Operational
Latitude Longitude
33° 53' 43" N 51° 34' 37" E
33.895302 51.577000
Local (DST + 5) UTC (GMT + 4)
Jul 29, 2014 09:16 Jul 29, 2014 16:46
Sunrise-Sunset Local UTC
Begin Civil Twilight 05:44 01:14
Sunrise 06:11 01:41
Sunset 08:08 15:38
End Civil Twilight 08:35 16:05

Current Weather

METAR Observed VFR
OIFK 291600Z 00000KT CAVOK 34/13 Q1006 Tue, Jul 29, 2014 @ 16:00 UTC
(46 Minutes ago)
Visual Flight Rules

Decoded METAR

Wind Visibility Clouds Conditions
Calm 10 km or more
  • Clear skies
  • No significant weather
Temperatures Readings Precipitation
Current Temp 34°C (93°F)
Dewpoint 13°C (55°F)
Humidity 28%
Altimeter 29.7"Hg
Sea Level Pressure 1006mb
Field Elevation 3221.78'
None Recorded

Additional weather within a 185.2km radius of OIFK

Map ICAO Location
OIFM 129.8km S (168°)
OIIE 173.3km N (347°)

24 Hour Weather History

Loading
-

24 Hour Weather Graphs

Loading
-

CheckWX.com is intended as a tool to help pilots better visualize weather data. It is not intended as a substitute for an official weather briefing obtained from a Flight Service Station. CheckWX.com does not meet the FAA requirements for an official pre-flight weather briefing. Therefore, it's important that pilots still call and obtain an official FSS pre-flight weather briefing.